sensor_id;sensor_type;location;lat;lon;timestamp;temperature;humidity
64961;SHT31;51487;52.266;10.542;2022-07-23T00:01:31;17.49;80.09
64961;SHT31;51487;52.266;10.542;2022-07-23T00:03:56;17.38;80.30
64961;SHT31;51487;52.266;10.542;2022-07-23T00:06:23;17.28;80.78
64961;SHT31;51487;52.266;10.542;2022-07-23T00:08:49;17.29;80.75
64961;SHT31;51487;52.266;10.542;2022-07-23T00:11:15;17.28;81.01
64961;SHT31;51487;52.266;10.542;2022-07-23T00:13:40;17.32;80.82
64961;SHT31;51487;52.266;10.542;2022-07-23T00:16:06;17.29;80.70
64961;SHT31;51487;52.266;10.542;2022-07-23T00:18:32;17.24;81.05
64961;SHT31;51487;52.266;10.542;2022-07-23T00:20:58;17.29;80.97
64961;SHT31;51487;52.266;10.542;2022-07-23T00:23:23;17.27;80.93
64961;SHT31;51487;52.266;10.542;2022-07-23T00:25:51;17.19;81.23
64961;SHT31;51487;52.266;10.542;2022-07-23T00:28:17;17.24;81.31
64961;SHT31;51487;52.266;10.542;2022-07-23T00:30:44;17.28;81.25
64961;SHT31;51487;52.266;10.542;2022-07-23T00:33:10;17.28;81.61
64961;SHT31;51487;52.266;10.542;2022-07-23T00:35:39;17.31;81.88
64961;SHT31;51487;52.266;10.542;2022-07-23T00:38:08;17.34;81.91
64961;SHT31;51487;52.266;10.542;2022-07-23T00:40:38;17.39;81.88
64961;SHT31;51487;52.266;10.542;2022-07-23T00:43:05;17.43;81.79
64961;SHT31;51487;52.266;10.542;2022-07-23T00:45:31;17.42;81.68
64961;SHT31;51487;52.266;10.542;2022-07-23T00:47:58;17.48;81.69
64961;SHT31;51487;52.266;10.542;2022-07-23T00:50:23;17.53;81.35
64961;SHT31;51487;52.266;10.542;2022-07-23T00:52:49;17.49;81.31
64961;SHT31;51487;52.266;10.542;2022-07-23T00:55:15;17.48;81.35
64961;SHT31;51487;52.266;10.542;2022-07-23T00:57:42;17.53;81.25
64961;SHT31;51487;52.266;10.542;2022-07-23T01:00:12;17.49;81.21
64961;SHT31;51487;52.266;10.542;2022-07-23T01:02:39;17.48;81.43
64961;SHT31;51487;52.266;10.542;2022-07-23T01:05:06;17.45;81.55
64961;SHT31;51487;52.266;10.542;2022-07-23T01:07:33;17.48;81.49
64961;SHT31;51487;52.266;10.542;2022-07-23T01:10:00;17.42;81.53
64961;SHT31;51487;52.266;10.542;2022-07-23T01:12:25;17.29;81.67
64961;SHT31;51487;52.266;10.542;2022-07-23T01:14:59;17.31;81.71
64961;SHT31;51487;52.266;10.542;2022-07-23T01:17:25;17.34;81.68
64961;SHT31;51487;52.266;10.542;2022-07-23T01:19:50;17.32;81.20
64961;SHT31;51487;52.266;10.542;2022-07-23T01:22:20;17.31;80.58
64961;SHT31;51487;52.266;10.542;2022-07-23T01:24:47;17.18;80.78
64961;SHT31;51487;52.266;10.542;2022-07-23T01:27:12;17.11;80.93
64961;SHT31;51487;52.266;10.542;2022-07-23T01:29:38;17.10;81.06
64961;SHT31;51487;52.266;10.542;2022-07-23T01:32:05;17.00;81.53
64961;SHT31;51487;52.266;10.542;2022-07-23T01:34:30;16.95;81.65
64961;SHT31;51487;52.266;10.542;2022-07-23T01:36:56;16.97;81.96
64961;SHT31;51487;52.266;10.542;2022-07-23T01:39:21;16.98;81.94
64961;SHT31;51487;52.266;10.542;2022-07-23T01:41:47;16.88;82.25
64961;SHT31;51487;52.266;10.542;2022-07-23T01:44:12;16.88;82.18
64961;SHT31;51487;52.266;10.542;2022-07-23T01:46:39;16.83;82.13
64961;SHT31;51487;52.266;10.542;2022-07-23T01:49:04;16.74;82.46
64961;SHT31;51487;52.266;10.542;2022-07-23T01:51:30;16.59;83.10
64961;SHT31;51487;52.266;10.542;2022-07-23T01:53:55;16.40;83.77
64961;SHT31;51487;52.266;10.542;2022-07-23T01:56:21;16.50;83.52
64961;SHT31;51487;52.266;10.542;2022-07-23T01:58:48;16.56;83.32
64961;SHT31;51487;52.266;10.542;2022-07-23T02:01:14;16.55;83.47
64961;SHT31;51487;52.266;10.542;2022-07-23T02:03:39;16.64;82.96
64961;SHT31;51487;52.266;10.542;2022-07-23T02:06:05;16.59;82.97
64961;SHT31;51487;52.266;10.542;2022-07-23T02:08:30;16.59;83.12
64961;SHT31;51487;52.266;10.542;2022-07-23T02:10:56;16.32;83.75
64961;SHT31;51487;52.266;10.542;2022-07-23T02:13:21;16.33;83.84
64961;SHT31;51487;52.266;10.542;2022-07-23T02:15:47;16.36;83.63
64961;SHT31;51487;52.266;10.542;2022-07-23T02:18:12;16.33;83.72
64961;SHT31;51487;52.266;10.542;2022-07-23T02:20:38;16.29;83.87
64961;SHT31;51487;52.266;10.542;2022-07-23T02:23:05;16.34;83.82
64961;SHT31;51487;52.266;10.542;2022-07-23T02:25:32;16.40;83.51
64961;SHT31;51487;52.266;10.542;2022-07-23T02:27:57;16.45;83.50
64961;SHT31;51487;52.266;10.542;2022-07-23T02:30:23;16.39;83.88
64961;SHT31;51487;52.266;10.542;2022-07-23T02:32:48;16.42;83.84
64961;SHT31;51487;52.266;10.542;2022-07-23T02:35:14;16.32;84.09
64961;SHT31;51487;52.266;10.542;2022-07-23T02:37:39;16.28;84.23
64961;SHT31;51487;52.266;10.542;2022-07-23T02:40:05;16.38;83.66
64961;SHT31;51487;52.266;10.542;2022-07-23T02:42:31;16.39;83.46
64961;SHT31;51487;52.266;10.542;2022-07-23T02:44:57;16.34;83.55
64961;SHT31;51487;52.266;10.542;2022-07-23T02:47:22;16.30;83.86
64961;SHT31;51487;52.266;10.542;2022-07-23T02:49:48;16.05;84.44
64961;SHT31;51487;52.266;10.542;2022-07-23T02:52:13;15.94;84.95
64961;SHT31;51487;52.266;10.542;2022-07-23T02:54:39;15.98;84.83
64961;SHT31;51487;52.266;10.542;2022-07-23T02:57:05;16.04;84.60
64961;SHT31;51487;52.266;10.542;2022-07-23T02:59:31;16.04;84.40
64961;SHT31;51487;52.266;10.542;2022-07-23T03:01:56;16.11;84.38
64961;SHT31;51487;52.266;10.542;2022-07-23T03:04:22;16.19;84.04
64961;SHT31;51487;52.266;10.542;2022-07-23T03:06:47;16.28;83.72
64961;SHT31;51487;52.266;10.542;2022-07-23T03:09:14;16.23;83.84
64961;SHT31;51487;52.266;10.542;2022-07-23T03:11:39;16.21;83.84
64961;SHT31;51487;52.266;10.542;2022-07-23T03:14:05;16.18;84.01
64961;SHT31;51487;52.266;10.542;2022-07-23T03:16:31;16.25;83.72
64961;SHT31;51487;52.266;10.542;2022-07-23T03:18:57;16.28;83.57
64961;SHT31;51487;52.266;10.542;2022-07-23T03:21:22;16.34;83.41
64961;SHT31;51487;52.266;10.542;2022-07-23T03:23:48;16.42;83.07
64961;SHT31;51487;52.266;10.542;2022-07-23T03:26:14;16.34;83.28
64961;SHT31;51487;52.266;10.542;2022-07-23T03:28:39;16.06;83.93
64961;SHT31;51487;52.266;10.542;2022-07-23T03:31:05;16.04;84.18
64961;SHT31;51487;52.266;10.542;2022-07-23T03:33:30;16.05;84.02
64961;SHT31;51487;52.266;10.542;2022-07-23T03:35:56;15.90;84.33
64961;SHT31;51487;52.266;10.542;2022-07-23T03:38:21;15.90;84.45
64961;SHT31;51487;52.266;10.542;2022-07-23T03:40:47;15.98;84.01
64961;SHT31;51487;52.266;10.542;2022-07-23T03:43:12;15.97;84.14
64961;SHT31;51487;52.266;10.542;2022-07-23T03:45:38;15.97;84.19
64961;SHT31;51487;52.266;10.542;2022-07-23T03:48:04;16.11;83.75
64961;SHT31;51487;52.266;10.542;2022-07-23T03:50:29;16.16;83.38
64961;SHT31;51487;52.266;10.542;2022-07-23T03:52:55;16.19;83.34
64961;SHT31;51487;52.266;10.542;2022-07-23T03:55:20;16.26;83.18
64961;SHT31;51487;52.266;10.542;2022-07-23T03:57:46;16.36;82.82
64961;SHT31;51487;52.266;10.542;2022-07-23T04:00:13;16.34;82.62
64961;SHT31;51487;52.266;10.542;2022-07-23T04:02:39;16.33;82.74
64961;SHT31;51487;52.266;10.542;2022-07-23T04:05:06;16.45;82.52
64961;SHT31;51487;52.266;10.542;2022-07-23T04:07:32;16.45;82.58
64961;SHT31;51487;52.266;10.542;2022-07-23T04:09:57;16.52;82.56
64961;SHT31;51487;52.266;10.542;2022-07-23T04:12:24;16.56;82.41
64961;SHT31;51487;52.266;10.542;2022-07-23T04:14:49;16.49;82.37
64961;SHT31;51487;52.266;10.542;2022-07-23T04:17:15;16.48;82.10
64961;SHT31;51487;52.266;10.542;2022-07-23T04:19:40;16.42;82.21
64961;SHT31;51487;52.266;10.542;2022-07-23T04:22:08;16.38;82.50
64961;SHT31;51487;52.266;10.542;2022-07-23T04:24:34;16.46;82.35
64961;SHT31;51487;52.266;10.542;2022-07-23T04:27:00;16.52;82.21
64961;SHT31;51487;52.266;10.542;2022-07-23T04:29:26;16.55;82.02
64961;SHT31;51487;52.266;10.542;2022-07-23T04:31:52;16.60;81.84
64961;SHT31;51487;52.266;10.542;2022-07-23T04:34:17;16.55;81.93
64961;SHT31;51487;52.266;10.542;2022-07-23T04:36:43;16.57;81.97
64961;SHT31;51487;52.266;10.542;2022-07-23T04:39:09;16.76;81.34
64961;SHT31;51487;52.266;10.542;2022-07-23T04:41:34;16.73;81.68
64961;SHT31;51487;52.266;10.542;2022-07-23T04:44:01;16.71;82.56
64961;SHT31;51487;52.266;10.542;2022-07-23T04:46:26;16.67;81.83
64961;SHT31;51487;52.266;10.542;2022-07-23T04:48:53;16.66;82.62
64961;SHT31;51487;52.266;10.542;2022-07-23T04:51:18;16.49;83.18
64961;SHT31;51487;52.266;10.542;2022-07-23T04:53:44;16.55;82.94
64961;SHT31;51487;52.266;10.542;2022-07-23T04:56:09;16.50;82.98
64961;SHT31;51487;52.266;10.542;2022-07-23T04:58:35;16.42;83.78
64961;SHT31;51487;52.266;10.542;2022-07-23T05:01:01;16.55;83.61
64961;SHT31;51487;52.266;10.542;2022-07-23T05:03:27;16.59;83.79
64961;SHT31;51487;52.266;10.542;2022-07-23T05:05:52;16.57;84.03
64961;SHT31;51487;52.266;10.542;2022-07-23T05:08:18;16.71;83.40
64961;SHT31;51487;52.266;10.542;2022-07-23T05:10:44;16.71;83.08
64961;SHT31;51487;52.266;10.542;2022-07-23T05:13:09;16.70;82.71
64961;SHT31;51487;52.266;10.542;2022-07-23T05:15:35;16.60;83.64
64961;SHT31;51487;52.266;10.542;2022-07-23T05:18:00;16.76;82.73
64961;SHT31;51487;52.266;10.542;2022-07-23T05:20:26;16.76;82.82
64961;SHT31;51487;52.266;10.542;2022-07-23T05:22:51;16.79;82.83
64961;SHT31;51487;52.266;10.542;2022-07-23T05:25:17;16.79;82.82
64961;SHT31;51487;52.266;10.542;2022-07-23T05:27:43;16.74;83.08
64961;SHT31;51487;52.266;10.542;2022-07-23T05:30:09;16.81;83.48
64961;SHT31;51487;52.266;10.542;2022-07-23T05:32:35;16.66;83.51
64961;SHT31;51487;52.266;10.542;2022-07-23T05:35:03;16.79;83.30
64961;SHT31;51487;52.266;10.542;2022-07-23T05:37:29;16.91;83.49
64961;SHT31;51487;52.266;10.542;2022-07-23T05:39:55;16.91;83.64
64961;SHT31;51487;52.266;10.542;2022-07-23T05:42:20;17.00;82.94
64961;SHT31;51487;52.266;10.542;2022-07-23T05:44:46;16.88;83.89
64961;SHT31;51487;52.266;10.542;2022-07-23T05:47:11;16.90;83.56
64961;SHT31;51487;52.266;10.542;2022-07-23T05:49:38;16.79;84.27
64961;SHT31;51487;52.266;10.542;2022-07-23T05:52:07;16.84;83.28
64961;SHT31;51487;52.266;10.542;2022-07-23T05:54:36;16.74;83.70
64961;SHT31;51487;52.266;10.542;2022-07-23T05:57:03;16.74;84.08
64961;SHT31;51487;52.266;10.542;2022-07-23T05:59:29;16.38;84.66
64961;SHT31;51487;52.266;10.542;2022-07-23T06:01:55;16.22;85.54
64961;SHT31;51487;52.266;10.542;2022-07-23T06:04:21;16.28;85.46
64961;SHT31;51487;52.266;10.542;2022-07-23T06:06:46;16.57;84.66
64961;SHT31;51487;52.266;10.542;2022-07-23T06:09:12;16.64;84.53
64961;SHT31;51487;52.266;10.542;2022-07-23T06:11:40;16.66;84.83
64961;SHT31;51487;52.266;10.542;2022-07-23T06:14:06;16.76;84.44
64961;SHT31;51487;52.266;10.542;2022-07-23T06:16:31;16.69;84.02
64961;SHT31;51487;52.266;10.542;2022-07-23T06:18:57;16.76;83.53
64961;SHT31;51487;52.266;10.542;2022-07-23T06:21:22;16.57;84.36
64961;SHT31;51487;52.266;10.542;2022-07-23T06:23:48;16.61;84.95
64961;SHT31;51487;52.266;10.542;2022-07-23T06:26:14;16.80;84.11
64961;SHT31;51487;52.266;10.542;2022-07-23T06:28:39;16.83;83.56
64961;SHT31;51487;52.266;10.542;2022-07-23T06:31:05;16.84;83.31
64961;SHT31;51487;52.266;10.542;2022-07-23T06:33:30;16.77;84.39
64961;SHT31;51487;52.266;10.542;2022-07-23T06:35:56;16.87;83.10
64961;SHT31;51487;52.266;10.542;2022-07-23T06:38:21;16.97;83.29
64961;SHT31;51487;52.266;10.542;2022-07-23T06:40:47;17.11;82.69
64961;SHT31;51487;52.266;10.542;2022-07-23T06:43:12;16.98;82.46
64961;SHT31;51487;52.266;10.542;2022-07-23T06:45:38;17.00;82.79
64961;SHT31;51487;52.266;10.542;2022-07-23T06:48:03;17.03;82.24
64961;SHT31;51487;52.266;10.542;2022-07-23T06:50:29;17.22;82.56
64961;SHT31;51487;52.266;10.542;2022-07-23T06:52:55;17.38;82.20
64961;SHT31;51487;52.266;10.542;2022-07-23T06:55:20;17.43;81.67
64961;SHT31;51487;52.266;10.542;2022-07-23T06:57:46;17.39;81.34
64961;SHT31;51487;52.266;10.542;2022-07-23T07:00:12;17.48;81.78
64961;SHT31;51487;52.266;10.542;2022-07-23T07:02:38;17.56;81.75
64961;SHT31;51487;52.266;10.542;2022-07-23T07:05:04;17.61;79.17
64961;SHT31;51487;52.266;10.542;2022-07-23T07:07:29;17.45;79.47
64961;SHT31;51487;52.266;10.542;2022-07-23T07:09:55;17.56;79.17
64961;SHT31;51487;52.266;10.542;2022-07-23T07:12:20;17.52;79.69
64961;SHT31;51487;52.266;10.542;2022-07-23T07:14:46;17.89;78.57
64961;SHT31;51487;52.266;10.542;2022-07-23T07:17:11;17.96;77.47
64961;SHT31;51487;52.266;10.542;2022-07-23T07:19:37;18.24;76.08
64961;SHT31;51487;52.266;10.542;2022-07-23T07:22:03;18.14;76.63
64961;SHT31;51487;52.266;10.542;2022-07-23T07:24:28;18.00;74.98
64961;SHT31;51487;52.266;10.542;2022-07-23T07:26:54;18.04;74.41
64961;SHT31;51487;52.266;10.542;2022-07-23T07:29:19;18.30;73.98
64961;SHT31;51487;52.266;10.542;2022-07-23T07:31:45;18.51;73.58
64961;SHT31;51487;52.266;10.542;2022-07-23T07:34:10;18.21;74.26
64961;SHT31;51487;52.266;10.542;2022-07-23T07:36:36;18.36;74.07
64961;SHT31;51487;52.266;10.542;2022-07-23T07:39:04;18.30;74.05
64961;SHT31;51487;52.266;10.542;2022-07-23T07:41:31;18.11;74.05
64961;SHT31;51487;52.266;10.542;2022-07-23T07:43:56;18.28;73.76
64961;SHT31;51487;52.266;10.542;2022-07-23T07:46:22;18.68;72.19
64961;SHT31;51487;52.266;10.542;2022-07-23T07:48:50;18.84;71.43
64961;SHT31;51487;52.266;10.542;2022-07-23T07:51:16;18.65;71.23
64961;SHT31;51487;52.266;10.542;2022-07-23T07:53:41;18.58;71.82
64961;SHT31;51487;52.266;10.542;2022-07-23T07:56:07;18.89;71.17
64961;SHT31;51487;52.266;10.542;2022-07-23T07:58:33;19.00;70.89
64961;SHT31;51487;52.266;10.542;2022-07-23T08:00:58;19.03;70.23
64961;SHT31;51487;52.266;10.542;2022-07-23T08:03:24;18.92;70.50
64961;SHT31;51487;52.266;10.542;2022-07-23T08:05:49;18.71;71.15
64961;SHT31;51487;52.266;10.542;2022-07-23T08:08:15;18.89;69.88
64961;SHT31;51487;52.266;10.542;2022-07-23T08:10:41;19.26;68.64
64961;SHT31;51487;52.266;10.542;2022-07-23T08:13:07;19.33;69.47
64961;SHT31;51487;52.266;10.542;2022-07-23T08:15:33;19.17;68.21
64961;SHT31;51487;52.266;10.542;2022-07-23T08:17:59;19.23;68.96
64961;SHT31;51487;52.266;10.542;2022-07-23T08:20:25;19.33;68.42
64961;SHT31;51487;52.266;10.542;2022-07-23T08:22:57;19.47;64.66
64961;SHT31;51487;52.266;10.542;2022-07-23T08:25:32;19.64;64.86
64961;SHT31;51487;52.266;10.542;2022-07-23T08:27:59;19.49;66.21
64961;SHT31;51487;52.266;10.542;2022-07-23T08:30:26;19.15;67.93
64961;SHT31;51487;52.266;10.542;2022-07-23T08:35:36;19.23;69.05
64961;SHT31;51487;52.266;10.542;2022-07-23T08:38:06;19.31;66.63
64961;SHT31;51487;52.266;10.542;2022-07-23T08:40:39;19.23;66.03
64961;SHT31;51487;52.266;10.542;2022-07-23T08:43:14;19.40;65.94
64961;SHT31;51487;52.266;10.542;2022-07-23T08:45:42;19.85;64.39
64961;SHT31;51487;52.266;10.542;2022-07-23T08:48:14;20.02;64.12
64961;SHT31;51487;52.266;10.542;2022-07-23T08:50:46;19.79;65.12
64961;SHT31;51487;52.266;10.542;2022-07-23T08:53:12;19.79;65.17
64961;SHT31;51487;52.266;10.542;2022-07-23T08:55:38;19.57;65.80
64961;SHT31;51487;52.266;10.542;2022-07-23T08:58:04;19.77;65.60
64961;SHT31;51487;52.266;10.542;2022-07-23T09:00:30;19.89;64.54
64961;SHT31;51487;52.266;10.542;2022-07-23T09:02:55;19.91;64.80
64961;SHT31;51487;52.266;10.542;2022-07-23T09:05:21;19.75;64.51
64961;SHT31;51487;52.266;10.542;2022-07-23T09:08:08;19.57;64.79
64961;SHT31;51487;52.266;10.542;2022-07-23T09:10:56;19.65;63.43
64961;SHT31;51487;52.266;10.542;2022-07-23T09:13:40;20.02;62.99
64961;SHT31;51487;52.266;10.542;2022-07-23T09:16:26;20.25;62.28
64961;SHT31;51487;52.266;10.542;2022-07-23T09:19:02;20.12;62.19
64961;SHT31;51487;52.266;10.542;2022-07-23T09:24:06;20.21;62.27
64961;SHT31;51487;52.266;10.542;2022-07-23T09:26:37;20.37;62.39
64961;SHT31;51487;52.266;10.542;2022-07-23T09:29:23;20.70;60.50
64961;SHT31;51487;52.266;10.542;2022-07-23T09:32:02;20.84;58.72
64961;SHT31;51487;52.266;10.542;2022-07-23T09:34:33;21.08;58.24
64961;SHT31;51487;52.266;10.542;2022-07-23T09:37:10;21.20;57.59
64961;SHT31;51487;52.266;10.542;2022-07-23T09:39:36;20.76;59.09
64961;SHT31;51487;52.266;10.542;2022-07-23T09:42:25;20.81;59.63
64961;SHT31;51487;52.266;10.542;2022-07-23T09:44:53;21.08;59.15
64961;SHT31;51487;52.266;10.542;2022-07-23T09:47:23;21.11;57.36
64961;SHT31;51487;52.266;10.542;2022-07-23T09:50:02;21.12;56.57
64961;SHT31;51487;52.266;10.542;2022-07-23T09:52:33;21.18;57.09
64961;SHT31;51487;52.266;10.542;2022-07-23T09:55:01;20.92;58.37
64961;SHT31;51487;52.266;10.542;2022-07-23T09:57:27;20.74;59.26
64961;SHT31;51487;52.266;10.542;2022-07-23T09:59:58;20.47;59.50
64961;SHT31;51487;52.266;10.542;2022-07-23T10:02:28;20.63;60.04
64961;SHT31;51487;52.266;10.542;2022-07-23T10:04:54;20.92;58.36
64961;SHT31;51487;52.266;10.542;2022-07-23T10:07:22;21.14;56.52
64961;SHT31;51487;52.266;10.542;2022-07-23T10:09:50;21.32;56.36
64961;SHT31;51487;52.266;10.542;2022-07-23T10:12:18;21.25;57.58
64961;SHT31;51487;52.266;10.542;2022-07-23T10:14:47;21.18;56.91
64961;SHT31;51487;52.266;10.542;2022-07-23T10:17:14;21.37;56.06
64961;SHT31;51487;52.266;10.542;2022-07-23T10:19:40;21.66;55.18
64961;SHT31;51487;52.266;10.542;2022-07-23T10:22:10;21.72;55.24
64961;SHT31;51487;52.266;10.542;2022-07-23T10:36:42;21.48;54.42
64961;SHT31;51487;52.266;10.542;2022-07-23T10:39:31;21.07;54.83
64961;SHT31;51487;52.266;10.542;2022-07-23T10:42:14;20.79;56.62
64961;SHT31;51487;52.266;10.542;2022-07-23T10:44:46;21.01;56.36
64961;SHT31;51487;52.266;10.542;2022-07-23T10:47:26;21.02;55.12
64961;SHT31;51487;52.266;10.542;2022-07-23T10:50:26;21.38;54.64
64961;SHT31;51487;52.266;10.542;2022-07-23T10:58:02;21.87;54.63
64961;SHT31;51487;52.266;10.542;2022-07-23T11:00:30;21.83;54.70
64961;SHT31;51487;52.266;10.542;2022-07-23T11:02:59;21.63;55.45
64961;SHT31;51487;52.266;10.542;2022-07-23T11:05:41;21.27;56.24
64961;SHT31;51487;52.266;10.542;2022-07-23T11:10:46;21.20;56.50
64961;SHT31;51487;52.266;10.542;2022-07-23T11:13:29;21.43;55.05
64961;SHT31;51487;52.266;10.542;2022-07-23T11:24:14;22.21;52.72
64961;SHT31;51487;52.266;10.542;2022-07-23T11:26:46;21.89;53.68
64961;SHT31;51487;52.266;10.542;2022-07-23T11:29:40;21.65;54.55
64961;SHT31;51487;52.266;10.542;2022-07-23T11:32:29;21.42;54.37
64961;SHT31;51487;52.266;10.542;2022-07-23T11:34:55;21.39;54.34
64961;SHT31;51487;52.266;10.542;2022-07-23T11:37:40;21.86;53.49
64961;SHT31;51487;52.266;10.542;2022-07-23T11:40:14;22.20;53.11
64961;SHT31;51487;52.266;10.542;2022-07-23T11:42:52;22.36;52.11
64961;SHT31;51487;52.266;10.542;2022-07-23T11:45:18;22.59;51.63
64961;SHT31;51487;52.266;10.542;2022-07-23T11:47:44;22.58;51.67
64961;SHT31;51487;52.266;10.542;2022-07-23T11:50:09;22.43;51.96
64961;SHT31;51487;52.266;10.542;2022-07-23T11:52:35;22.58;51.38
64961;SHT31;51487;52.266;10.542;2022-07-23T11:55:09;22.71;51.22
64961;SHT31;51487;52.266;10.542;2022-07-23T11:57:40;22.82;50.87
64961;SHT31;51487;52.266;10.542;2022-07-23T12:00:16;22.91;50.57
64961;SHT31;51487;52.266;10.542;2022-07-23T12:02:52;22.99;50.73
64961;SHT31;51487;52.266;10.542;2022-07-23T12:05:22;22.76;50.62
64961;SHT31;51487;52.266;10.542;2022-07-23T12:07:51;22.21;51.77
64961;SHT31;51487;52.266;10.542;2022-07-23T12:10:30;21.93;52.50
64961;SHT31;51487;52.266;10.542;2022-07-23T12:13:06;22.28;51.85
64961;SHT31;51487;52.266;10.542;2022-07-23T12:15:45;22.03;52.14
64961;SHT31;51487;52.266;10.542;2022-07-23T12:18:18;22.24;51.69
64961;SHT31;51487;52.266;10.542;2022-07-23T12:20:49;22.34;52.18
64961;SHT31;51487;52.266;10.542;2022-07-23T12:23:17;22.48;52.20
64961;SHT31;51487;52.266;10.542;2022-07-23T12:25:45;22.69;52.31
64961;SHT31;51487;52.266;10.542;2022-07-23T12:28:19;22.52;51.40
64961;SHT31;51487;52.266;10.542;2022-07-23T12:30:53;22.47;51.17
64961;SHT31;51487;52.266;10.542;2022-07-23T12:33:24;22.88;50.92
64961;SHT31;51487;52.266;10.542;2022-07-23T12:35:52;23.19;49.91
64961;SHT31;51487;52.266;10.542;2022-07-23T12:38:21;23.31;49.45
64961;SHT31;51487;52.266;10.542;2022-07-23T12:46:07;23.37;49.21
64961;SHT31;51487;52.266;10.542;2022-07-23T12:48:35;23.47;48.91
64961;SHT31;51487;52.266;10.542;2022-07-23T12:51:14;23.06;48.70
64961;SHT31;51487;52.266;10.542;2022-07-23T12:53:50;23.30;48.83
64961;SHT31;51487;52.266;10.542;2022-07-23T12:56:27;23.47;48.80
64961;SHT31;51487;52.266;10.542;2022-07-23T12:59:08;23.51;49.00
64961;SHT31;51487;52.266;10.542;2022-07-23T13:01:41;23.19;49.79
64961;SHT31;51487;52.266;10.542;2022-07-23T13:06:43;23.09;50.82
64961;SHT31;51487;52.266;10.542;2022-07-23T13:09:17;23.05;50.64
64961;SHT31;51487;52.266;10.542;2022-07-23T13:11:44;22.89;50.75
64961;SHT31;51487;52.266;10.542;2022-07-23T13:14:11;22.82;51.29
64961;SHT31;51487;52.266;10.542;2022-07-23T13:16:38;23.03;50.77
64961;SHT31;51487;52.266;10.542;2022-07-23T13:19:05;23.06;50.29
64961;SHT31;51487;52.266;10.542;2022-07-23T13:21:31;23.19;49.68
64961;SHT31;51487;52.266;10.542;2022-07-23T13:23:57;23.31;49.33
64961;SHT31;51487;52.266;10.542;2022-07-23T13:26:23;23.54;49.30
64961;SHT31;51487;52.266;10.542;2022-07-23T13:28:49;23.68;48.46
64961;SHT31;51487;52.266;10.542;2022-07-23T13:31:16;23.60;49.64
64961;SHT31;51487;52.266;10.542;2022-07-23T13:33:42;23.57;48.59
64961;SHT31;51487;52.266;10.542;2022-07-23T13:36:08;23.58;48.34
64961;SHT31;51487;52.266;10.542;2022-07-23T13:38:34;23.54;47.77
64961;SHT31;51487;52.266;10.542;2022-07-23T13:41:00;23.37;48.26
64961;SHT31;51487;52.266;10.542;2022-07-23T13:43:29;23.30;48.34
64961;SHT31;51487;52.266;10.542;2022-07-23T13:45:55;23.60;48.09
64961;SHT31;51487;52.266;10.542;2022-07-23T13:48:21;23.46;48.00
64961;SHT31;51487;52.266;10.542;2022-07-23T13:50:48;23.44;48.61
64961;SHT31;51487;52.266;10.542;2022-07-23T13:53:21;23.20;48.37
64961;SHT31;51487;52.266;10.542;2022-07-23T13:55:49;23.79;48.02
64961;SHT31;51487;52.266;10.542;2022-07-23T13:58:16;24.16;46.94
64961;SHT31;51487;52.266;10.542;2022-07-23T14:00:46;24.39;46.57
64961;SHT31;51487;52.266;10.542;2022-07-23T14:03:12;24.43;46.13
64961;SHT31;51487;52.266;10.542;2022-07-23T14:05:38;24.16;46.68
64961;SHT31;51487;52.266;10.542;2022-07-23T14:08:05;24.21;47.22
64961;SHT31;51487;52.266;10.542;2022-07-23T14:10:31;24.02;47.00
64961;SHT31;51487;52.266;10.542;2022-07-23T14:12:57;24.26;47.12
64961;SHT31;51487;52.266;10.542;2022-07-23T14:15:25;24.08;46.56
64961;SHT31;51487;52.266;10.542;2022-07-23T14:17:53;24.18;46.36
64961;SHT31;51487;52.266;10.542;2022-07-23T14:20:18;24.11;46.65
64961;SHT31;51487;52.266;10.542;2022-07-23T14:22:44;23.88;46.51
64961;SHT31;51487;52.266;10.542;2022-07-23T14:25:11;23.85;47.25
64961;SHT31;51487;52.266;10.542;2022-07-23T14:27:37;23.89;46.56
64961;SHT31;51487;52.266;10.542;2022-07-23T14:30:05;23.79;47.20
64961;SHT31;51487;52.266;10.542;2022-07-23T14:32:32;23.81;47.34
64961;SHT31;51487;52.266;10.542;2022-07-23T14:34:57;23.79;46.97
64961;SHT31;51487;52.266;10.542;2022-07-23T14:37:24;24.12;46.85
64961;SHT31;51487;52.266;10.542;2022-07-23T14:39:51;24.15;45.79
64961;SHT31;51487;52.266;10.542;2022-07-23T14:42:17;24.33;46.46
64961;SHT31;51487;52.266;10.542;2022-07-23T14:44:43;24.06;45.80
64961;SHT31;51487;52.266;10.542;2022-07-23T14:47:09;24.09;46.06
64961;SHT31;51487;52.266;10.542;2022-07-23T14:49:35;24.16;46.32
64961;SHT31;51487;52.266;10.542;2022-07-23T14:52:01;24.11;46.29
64961;SHT31;51487;52.266;10.542;2022-07-23T14:54:27;23.61;46.14
64961;SHT31;51487;52.266;10.542;2022-07-23T14:56:55;23.70;45.77
64961;SHT31;51487;52.266;10.542;2022-07-23T14:59:21;23.71;46.31
64961;SHT31;51487;52.266;10.542;2022-07-23T15:01:47;23.78;45.87
64961;SHT31;51487;52.266;10.542;2022-07-23T15:04:12;23.91;45.30
64961;SHT31;51487;52.266;10.542;2022-07-23T15:06:38;24.32;45.07
64961;SHT31;51487;52.266;10.542;2022-07-23T15:09:05;23.85;45.09
64961;SHT31;51487;52.266;10.542;2022-07-23T15:11:31;24.11;44.78
64961;SHT31;51487;52.266;10.542;2022-07-23T15:14:03;23.94;45.07
64961;SHT31;51487;52.266;10.542;2022-07-23T15:16:29;24.09;44.91
64961;SHT31;51487;52.266;10.542;2022-07-23T15:18:55;24.23;44.83
64961;SHT31;51487;52.266;10.542;2022-07-23T15:21:21;24.00;44.60
64961;SHT31;51487;52.266;10.542;2022-07-23T15:23:47;23.88;45.21
64961;SHT31;51487;52.266;10.542;2022-07-23T15:26:13;23.94;45.14
64961;SHT31;51487;52.266;10.542;2022-07-23T15:28:41;24.08;44.74
64961;SHT31;51487;52.266;10.542;2022-07-23T15:31:07;24.18;45.26
64961;SHT31;51487;52.266;10.542;2022-07-23T15:33:33;24.57;43.32
64961;SHT31;51487;52.266;10.542;2022-07-23T15:35:58;24.53;43.10
64961;SHT31;51487;52.266;10.542;2022-07-23T15:38:26;24.57;42.93
64961;SHT31;51487;52.266;10.542;2022-07-23T15:40:56;24.36;43.01
64961;SHT31;51487;52.266;10.542;2022-07-23T15:43:24;24.87;42.39
64961;SHT31;51487;52.266;10.542;2022-07-23T15:45:51;24.93;42.43
64961;SHT31;51487;52.266;10.542;2022-07-23T15:48:19;25.17;42.09
64961;SHT31;51487;52.266;10.542;2022-07-23T15:50:45;24.97;42.37
64961;SHT31;51487;52.266;10.542;2022-07-23T15:53:10;24.70;43.01
64961;SHT31;51487;52.266;10.542;2022-07-23T15:55:36;24.97;42.48
64961;SHT31;51487;52.266;10.542;2022-07-23T15:58:04;25.28;42.25
64961;SHT31;51487;52.266;10.542;2022-07-23T16:00:29;25.31;41.82